createdAt,value
2023-02-05T00:04:10.198Z,68.00
2023-02-05T00:06:37.717Z,62.45
2023-02-05T00:09:05.774Z,72.32
2023-02-05T00:11:33.733Z,61.70
2023-02-05T00:14:01.259Z,59.65
2023-02-05T00:16:28.848Z,49.03
2023-02-05T00:18:57.437Z,70.50
2023-02-05T00:21:25.266Z,63.40
2023-02-05T00:23:53.932Z,69.82
2023-02-05T00:26:22.519Z,53.20
2023-02-05T00:28:50.315Z,61.97
2023-02-05T00:31:22.183Z,72.68
2023-02-05T00:33:50.777Z,62.08
2023-02-05T00:36:19.353Z,66.63
2023-02-05T00:38:47.277Z,67.30
2023-02-05T00:41:15.769Z,83.97
2023-02-05T00:43:44.035Z,96.10
2023-02-05T00:46:12.593Z,96.97
2023-02-05T00:48:40.556Z,112.00
2023-02-05T00:51:09.098Z,106.03
2023-02-05T00:53:36.713Z,102.57
2023-02-05T00:56:04.955Z,96.15
2023-02-05T00:58:32.857Z,120.47
2023-02-05T01:03:36.732Z,120.65
2023-02-05T01:06:05.047Z,132.45
2023-02-05T01:08:32.549Z,125.18
2023-02-05T01:11:00.617Z,134.02
2023-02-05T01:13:29.108Z,119.45
2023-02-05T01:15:56.879Z,133.48
2023-02-05T01:18:24.506Z,133.13
2023-02-05T01:20:52.249Z,145.20
2023-02-05T01:23:19.980Z,147.60
2023-02-05T01:25:47.583Z,142.48
2023-02-05T01:28:18.943Z,138.13
2023-02-05T01:30:50.680Z,151.82
2023-02-05T01:33:19.345Z,151.07
2023-02-05T01:35:48.202Z,132.27
2023-02-05T01:38:15.956Z,153.32
2023-02-05T01:40:44.795Z,151.50
2023-02-05T01:43:13.932Z,161.25
2023-02-05T01:45:52.109Z,143.05
2023-02-05T01:48:22.082Z,133.63
2023-02-05T01:50:51.976Z,120.68
2023-02-05T01:53:22.524Z,128.57
2023-02-05T01:58:22.884Z,109.32
2023-02-05T02:00:51.219Z,119.30
2023-02-05T02:03:18.922Z,118.32
2023-02-05T02:05:46.437Z,118.72
2023-02-05T02:08:17.939Z,116.45
2023-02-05T02:10:47.158Z,103.50
2023-02-05T02:13:15.240Z,96.32
2023-02-05T02:15:43.335Z,103.53
2023-02-05T02:18:28.704Z,98.68
2023-02-05T02:21:05.978Z,97.28
2023-02-05T02:23:48.660Z,94.10
2023-02-05T02:26:54.867Z,93.22
2023-02-05T02:29:36.626Z,86.32
2023-02-05T02:32:09.203Z,81.47
2023-02-05T02:34:42.740Z,86.63
2023-02-05T02:37:19.606Z,79.88
2023-02-05T02:39:55.242Z,81.10
2023-02-05T02:42:26.233Z,81.47
2023-02-05T02:44:57.663Z,82.15
2023-02-05T02:47:27.280Z,79.47
2023-02-05T02:52:24.757Z,74.82
2023-02-05T02:54:53.715Z,72.32
2023-02-05T02:57:24.145Z,65.87
2023-02-05T02:59:54.277Z,72.50
2023-02-05T03:02:22.451Z,70.40
2023-02-05T03:04:54.384Z,62.28
2023-02-05T03:07:25.966Z,65.60
2023-02-05T03:12:22.535Z,62.95
2023-02-05T03:14:50.451Z,57.22
2023-02-05T03:17:21.153Z,69.65
2023-02-05T03:19:54.215Z,60.90
2023-02-05T03:22:21.653Z,58.58
2023-02-05T03:24:51.096Z,59.13
2023-02-05T03:27:20.688Z,59.88
2023-02-05T03:29:51.045Z,56.40
2023-02-05T03:32:21.620Z,56.05
2023-02-05T03:35:02.315Z,49.53
2023-02-05T03:37:54.476Z,52.97
2023-02-05T03:40:34.826Z,56.75
2023-02-05T03:43:18.648Z,52.67
2023-02-05T03:45:50.318Z,50.58
2023-02-05T03:48:49.177Z,50.80
2023-02-05T03:51:23.055Z,55.20
2023-02-05T03:53:51.779Z,50.22
2023-02-05T03:56:28.470Z,49.95
2023-02-05T03:58:57.441Z,45.20
2023-02-05T04:01:27.097Z,45.35
2023-02-05T04:03:54.621Z,49.88
2023-02-05T04:06:22.349Z,54.95
2023-02-05T04:08:54.217Z,48.95
2023-02-05T04:11:25.768Z,46.72
2023-02-05T04:13:54.224Z,49.00
2023-02-05T04:16:21.990Z,49.70
2023-02-05T04:18:49.982Z,59.05
2023-02-05T04:21:19.219Z,55.92
2023-02-05T04:23:46.750Z,57.08
2023-02-05T04:26:15.528Z,56.55
2023-02-05T04:28:50.940Z,61.53
2023-02-05T04:31:20.193Z,57.13
2023-02-05T04:33:48.003Z,52.78
2023-02-05T04:36:17.901Z,61.40
2023-02-05T04:38:46.258Z,58.25
2023-02-05T04:41:15.091Z,54.55
2023-02-05T04:43:42.568Z,60.60
2023-02-05T04:46:10.942Z,52.75
2023-02-05T04:48:39.137Z,58.00
2023-02-05T04:51:11.004Z,56.42
2023-02-05T04:53:39.251Z,47.58
2023-02-05T04:56:12.035Z,55.28
2023-02-05T04:58:40.029Z,45.85
2023-02-05T05:01:12.717Z,49.88
2023-02-05T05:03:41.615Z,45.65
2023-02-05T05:06:09.344Z,41.55
2023-02-05T05:08:37.606Z,38.45
2023-02-05T05:11:12.875Z,38.00
2023-02-05T05:13:41.086Z,43.10
2023-02-05T05:16:09.112Z,41.53
2023-02-05T05:18:36.698Z,40.40
2023-02-05T05:21:05.339Z,41.83
2023-02-05T05:23:33.365Z,36.83
2023-02-05T05:26:00.778Z,31.27
2023-02-05T05:28:28.410Z,34.38
2023-02-05T05:30:59.998Z,29.73
2023-02-05T05:33:31.272Z,35.17
2023-02-05T05:35:59.585Z,34.30
2023-02-05T05:38:27.111Z,31.40
2023-02-05T05:41:14.441Z,36.40
2023-02-05T05:43:48.291Z,29.65
2023-02-05T05:46:23.043Z,29.15
2023-02-05T05:48:54.698Z,26.85
2023-02-05T05:51:22.795Z,35.88
2023-02-05T05:53:50.930Z,26.92
2023-02-05T05:56:18.690Z,30.73
2023-02-05T05:58:46.878Z,31.23
2023-02-05T06:01:15.905Z,33.15
2023-02-05T06:03:44.931Z,30.23
2023-02-05T06:06:13.765Z,31.50
2023-02-05T06:08:41.785Z,33.47
2023-02-05T06:11:12.866Z,28.55
2023-02-05T06:13:41.877Z,30.90
2023-02-05T06:16:09.487Z,32.80
2023-02-05T06:18:37.145Z,28.85
2023-02-05T06:21:06.004Z,32.08
2023-02-05T06:23:34.453Z,27.80
2023-02-05T06:26:01.999Z,27.42
2023-02-05T06:28:29.504Z,25.17
2023-02-05T06:30:57.296Z,26.95
2023-02-05T06:33:25.113Z,23.48
2023-02-05T06:35:52.754Z,24.13
2023-02-05T06:38:20.518Z,23.27
2023-02-05T06:40:48.775Z,15.52
2023-02-05T06:43:17.069Z,15.27
2023-02-05T06:45:45.377Z,18.98
2023-02-05T06:48:13.110Z,9.07
2023-02-05T06:50:41.493Z,9.95
2023-02-05T06:53:11.531Z,12.02
2023-02-05T06:55:39.722Z,15.40
2023-02-05T06:58:08.178Z,14.32
2023-02-05T07:00:36.759Z,22.75
2023-02-05T07:03:04.759Z,12.25
2023-02-05T07:05:34.131Z,16.50
2023-02-05T07:10:32.531Z,19.58
2023-02-05T07:13:05.566Z,11.88
2023-02-05T07:15:34.199Z,16.98
2023-02-05T07:18:02.176Z,9.30
2023-02-05T07:20:29.955Z,9.60
2023-02-05T07:22:58.635Z,8.70
2023-02-05T07:25:26.686Z,17.20
2023-02-05T07:27:58.230Z,20.05
2023-02-05T07:30:29.698Z,13.40
2023-02-05T07:32:57.637Z,15.55
2023-02-05T07:35:25.227Z,13.48
2023-02-05T07:37:52.898Z,11.07
2023-02-05T07:40:20.680Z,15.85
2023-02-05T07:42:48.575Z,15.88
2023-02-05T07:45:16.534Z,14.25
2023-02-05T07:47:51.087Z,13.25
2023-02-05T07:50:18.744Z,16.30
2023-02-05T07:52:46.329Z,17.17
2023-02-05T07:55:14.219Z,16.15
2023-02-05T07:57:41.802Z,19.67
2023-02-05T08:00:09.938Z,14.23
2023-02-05T08:02:41.276Z,21.70
2023-02-05T08:05:09.247Z,12.85
2023-02-05T08:07:37.783Z,14.63
2023-02-05T08:10:05.878Z,16.30
2023-02-05T08:12:33.434Z,12.43
2023-02-05T08:15:01.170Z,14.25
2023-02-05T08:17:28.835Z,15.70
2023-02-05T08:19:56.458Z,19.17
2023-02-05T08:22:24.269Z,21.60
2023-02-05T08:24:51.962Z,26.30
2023-02-05T08:27:19.645Z,16.73
2023-02-05T08:29:50.132Z,17.60
2023-02-05T08:32:17.772Z,22.35
2023-02-05T08:34:48.778Z,23.88
2023-02-05T08:37:16.762Z,14.50
2023-02-05T08:39:46.469Z,20.63
2023-02-05T08:42:15.245Z,20.63
2023-02-05T08:44:42.835Z,25.10
2023-02-05T08:47:17.406Z,19.63
2023-02-05T08:49:46.784Z,25.52
2023-02-05T08:52:15.301Z,25.65
2023-02-05T08:54:44.140Z,25.75
2023-02-05T08:57:16.779Z,24.85
2023-02-05T08:59:48.637Z,34.22
2023-02-05T09:02:16.857Z,27.15
2023-02-05T09:04:45.975Z,33.17
2023-02-05T09:07:17.106Z,42.10
2023-02-05T09:09:45.194Z,29.52
2023-02-05T09:12:14.209Z,24.73
2023-02-05T09:14:42.869Z,32.70
2023-02-05T09:17:15.726Z,30.08
2023-02-05T09:19:45.577Z,31.02
2023-02-05T09:22:14.464Z,34.83
2023-02-05T09:24:42.140Z,38.85
2023-02-05T09:27:09.875Z,31.92
2023-02-05T09:29:37.966Z,38.30
2023-02-05T09:34:35.837Z,32.45
2023-02-05T09:37:03.405Z,28.00
2023-02-05T09:42:22.325Z,40.17
2023-02-05T09:45:16.505Z,39.13
2023-02-05T09:47:50.614Z,35.47
2023-02-05T09:50:29.884Z,35.30
2023-02-05T09:53:02.383Z,30.52
2023-02-05T09:55:32.409Z,42.60
2023-02-05T09:58:04.184Z,41.42
2023-02-05T10:00:40.328Z,38.75
2023-02-05T10:03:29.523Z,46.33
2023-02-05T10:05:57.058Z,42.15
2023-02-05T10:08:29.718Z,45.05
2023-02-05T10:10:58.917Z,37.80
2023-02-05T10:13:29.891Z,40.10
2023-02-05T10:16:11.106Z,31.92
2023-02-05T10:18:48.239Z,36.30
2023-02-05T10:21:22.365Z,37.03
2023-02-05T10:24:09.135Z,32.40
2023-02-05T10:27:06.288Z,38.53
2023-02-05T10:29:52.806Z,37.40
2023-02-05T10:32:25.759Z,36.03
2023-02-05T10:35:04.610Z,31.80
2023-02-05T10:37:46.810Z,41.85
2023-02-05T10:40:24.384Z,41.17
2023-02-05T10:42:58.406Z,47.33
2023-02-05T10:45:27.817Z,33.45
2023-02-05T10:48:11.347Z,36.80
2023-02-05T10:50:57.234Z,35.95
2023-02-05T10:53:26.108Z,30.55
2023-02-05T10:56:16.002Z,40.15
2023-02-05T10:58:50.921Z,38.30
2023-02-05T11:01:21.131Z,46.65
2023-02-05T11:03:52.152Z,34.38
2023-02-05T11:06:20.851Z,40.75
2023-02-05T11:08:48.932Z,30.63
2023-02-05T11:11:23.151Z,34.45
2023-02-05T11:13:54.713Z,41.10
2023-02-05T11:16:23.086Z,29.08
2023-02-05T11:19:00.953Z,41.20
2023-02-05T11:21:49.190Z,35.78
2023-02-05T11:24:36.692Z,40.10
2023-02-05T11:27:17.429Z,33.30
2023-02-05T11:29:45.711Z,36.58
2023-02-05T11:32:24.034Z,38.90
2023-02-05T11:34:56.580Z,42.75
2023-02-05T11:37:24.272Z,38.00
2023-02-05T11:39:54.910Z,38.03
2023-02-05T11:42:23.818Z,39.38
2023-02-05T11:44:53.694Z,36.25
2023-02-05T11:47:25.748Z,37.60
2023-02-05T11:49:54.489Z,35.25
2023-02-05T11:52:35.300Z,40.42
2023-02-05T11:55:09.349Z,32.85
2023-02-05T11:57:39.539Z,35.38
2023-02-05T12:00:16.527Z,41.22
2023-02-05T12:02:45.085Z,36.97
2023-02-05T12:05:19.565Z,47.92
2023-02-05T12:07:47.616Z,35.45
2023-02-05T12:10:16.762Z,38.75
2023-02-05T12:12:50.827Z,41.30
2023-02-05T12:15:25.932Z,37.42
2023-02-05T12:17:56.898Z,41.50
2023-02-05T12:20:29.546Z,40.58
2023-02-05T12:22:57.047Z,40.75
2023-02-05T12:25:44.542Z,40.83
2023-02-05T12:28:29.009Z,33.95
2023-02-05T12:30:58.254Z,27.70
2023-02-05T12:33:38.805Z,36.30
2023-02-05T12:38:34.342Z,39.08
2023-02-05T12:41:14.482Z,34.17
2023-02-05T12:43:46.436Z,37.72
2023-02-05T12:46:34.535Z,34.55
2023-02-05T12:49:05.438Z,31.73
2023-02-05T12:51:33.002Z,31.35
2023-02-05T12:54:05.997Z,27.80
2023-02-05T12:56:46.627Z,32.78
2023-02-05T13:01:48.797Z,38.55
2023-02-05T13:04:26.780Z,34.88
2023-02-05T13:07:00.334Z,21.90
2023-02-05T13:09:33.409Z,30.63
2023-02-05T13:12:05.565Z,24.00
2023-02-05T13:14:37.574Z,25.92
2023-02-05T13:17:17.966Z,22.98
2023-02-05T13:19:54.196Z,23.02
2023-02-05T13:22:48.355Z,35.53
2023-02-05T13:25:38.126Z,30.45
2023-02-05T13:28:42.201Z,25.25
2023-02-05T13:31:23.572Z,24.15
2023-02-05T13:33:52.225Z,26.75
2023-02-05T13:36:23.160Z,38.83
2023-02-05T13:39:11.391Z,40.00
2023-02-05T13:41:49.009Z,36.13
2023-02-05T13:44:31.404Z,43.25
2023-02-05T13:47:20.263Z,26.23
2023-02-05T13:49:54.671Z,29.38
2023-02-05T13:52:36.397Z,26.15
2023-02-05T13:55:16.342Z,31.17
2023-02-05T13:58:03.078Z,31.98
2023-02-05T14:00:31.088Z,27.40
2023-02-05T14:03:05.762Z,24.40
2023-02-05T14:05:35.809Z,28.73
2023-02-05T14:08:04.136Z,27.88
2023-02-05T14:10:33.605Z,31.27
2023-02-05T14:13:20.246Z,30.73
2023-02-05T14:15:48.548Z,29.05
2023-02-05T14:18:35.524Z,27.00
2023-02-05T14:21:23.060Z,20.23
2023-02-05T14:23:50.704Z,23.20
2023-02-05T14:26:19.034Z,26.48
2023-02-05T14:28:48.649Z,30.58
2023-02-05T14:31:35.235Z,24.17
2023-02-05T14:34:22.669Z,25.00
2023-02-05T14:36:53.514Z,32.67
2023-02-05T14:39:25.964Z,19.27
2023-02-05T14:41:59.070Z,29.60
2023-02-05T14:44:30.926Z,24.08
2023-02-05T14:47:02.601Z,24.40
2023-02-05T14:49:39.595Z,31.85
2023-02-05T14:52:08.169Z,23.70
2023-02-05T14:54:45.084Z,34.13
2023-02-05T14:57:16.275Z,25.35
2023-02-05T14:59:52.773Z,31.02
2023-02-05T15:02:40.905Z,33.45
2023-02-05T15:05:17.669Z,29.67
2023-02-05T15:07:47.068Z,25.77
2023-02-05T15:10:17.849Z,28.25
2023-02-05T15:13:01.119Z,24.92
2023-02-05T15:15:33.695Z,27.75
2023-02-05T15:18:11.087Z,33.90
2023-02-05T15:20:40.550Z,26.45
2023-02-05T15:23:07.977Z,25.17
2023-02-05T15:25:40.434Z,30.02
2023-02-05T15:28:28.270Z,28.20
2023-02-05T15:31:03.624Z,20.27
2023-02-05T15:33:41.303Z,22.42
2023-02-05T15:36:18.128Z,18.52
2023-02-05T15:38:49.466Z,26.77
2023-02-05T15:41:17.291Z,33.78
2023-02-05T15:43:59.420Z,32.60
2023-02-05T15:46:27.315Z,27.95
2023-02-05T15:48:56.427Z,30.30
2023-02-05T15:51:35.013Z,27.20
2023-02-05T15:54:04.727Z,29.45
2023-02-05T15:56:36.425Z,30.02
2023-02-05T15:59:04.048Z,24.52
2023-02-05T16:01:35.101Z,26.48
2023-02-05T16:04:03.375Z,24.35
2023-02-05T16:06:32.589Z,37.20
2023-02-05T16:09:00.352Z,27.95
2023-02-05T16:11:35.478Z,39.30
2023-02-05T16:14:07.764Z,29.42
2023-02-05T16:16:38.098Z,33.25
2023-02-05T16:19:06.923Z,27.85
2023-02-05T16:21:42.433Z,31.40
2023-02-05T16:24:17.130Z,36.20
2023-02-05T16:26:49.474Z,26.88
2023-02-05T16:29:25.620Z,25.70
2023-02-05T16:32:00.474Z,27.15
2023-02-05T16:34:28.626Z,38.90
2023-02-05T16:36:58.725Z,35.05
2023-02-05T16:39:28.078Z,31.40
2023-02-05T16:42:06.946Z,39.35
2023-02-05T16:44:40.113Z,35.75
2023-02-05T16:47:18.112Z,30.63
2023-02-05T16:49:47.872Z,25.20
2023-02-05T16:52:27.650Z,34.47
2023-02-05T16:54:55.768Z,35.63
2023-02-05T16:57:26.810Z,38.10
2023-02-05T16:59:56.364Z,32.78
2023-02-05T17:02:35.875Z,27.57
2023-02-05T17:05:06.339Z,25.17
2023-02-05T17:07:34.336Z,44.70
2023-02-05T17:10:15.469Z,33.63
2023-02-05T17:13:05.028Z,31.48
2023-02-05T17:15:40.642Z,35.40
2023-02-05T17:18:22.600Z,32.72
2023-02-05T17:20:50.532Z,35.45
2023-02-05T17:23:18.693Z,34.15
2023-02-05T17:25:52.754Z,35.67
2023-02-05T17:28:21.717Z,38.38
2023-02-05T17:30:50.527Z,38.72
2023-02-05T17:33:23.991Z,35.15
2023-02-05T17:35:51.857Z,41.03
2023-02-05T17:38:25.998Z,43.95
2023-02-05T17:41:21.843Z,37.25
2023-02-05T17:43:52.837Z,35.15
2023-02-05T17:46:20.456Z,37.20
2023-02-05T17:48:53.052Z,43.83
2023-02-05T17:51:22.030Z,40.00
2023-02-05T17:53:50.933Z,35.65
2023-02-05T17:56:19.653Z,39.20
2023-02-05T17:58:47.349Z,44.83
2023-02-05T18:01:18.719Z,36.05
2023-02-05T18:03:46.588Z,35.88
2023-02-05T18:06:15.965Z,43.67
2023-02-05T18:08:43.985Z,50.25
2023-02-05T18:11:11.711Z,50.08
2023-02-05T18:13:39.489Z,48.42
2023-02-05T18:16:07.312Z,47.85
2023-02-05T18:18:39.491Z,46.03
2023-02-05T18:21:08.537Z,38.05
2023-02-05T18:23:36.230Z,44.95
2023-02-05T18:26:05.749Z,45.05
2023-02-05T18:28:33.878Z,54.73
2023-02-05T18:31:20.435Z,49.70
2023-02-05T18:33:49.768Z,49.22
2023-02-05T18:36:17.255Z,61.35
2023-02-05T18:38:59.189Z,47.45
2023-02-05T18:41:31.738Z,48.95
2023-02-05T18:44:00.993Z,54.17
2023-02-05T18:46:29.355Z,59.88
2023-02-05T18:48:57.083Z,59.35
2023-02-05T18:51:24.752Z,57.10
2023-02-05T18:53:54.479Z,39.60
2023-02-05T18:56:25.914Z,36.97
2023-02-05T18:59:02.609Z,31.85
2023-02-05T19:01:31.415Z,56.05
2023-02-05T19:04:03.751Z,39.63
2023-02-05T19:06:32.127Z,40.92
2023-02-05T19:09:00.770Z,53.58
2023-02-05T19:11:29.296Z,45.95
2023-02-05T19:13:57.438Z,38.00
2023-02-05T19:16:25.774Z,46.72
2023-02-05T19:18:55.653Z,43.92
2023-02-05T19:21:24.070Z,43.47
2023-02-05T19:23:55.838Z,51.75
2023-02-05T19:26:24.795Z,42.92
2023-02-05T19:28:56.085Z,44.38
2023-02-05T19:31:25.036Z,52.30
2023-02-05T19:33:53.532Z,53.88
2023-02-05T19:36:22.648Z,51.05
2023-02-05T19:38:50.519Z,49.03
2023-02-05T19:41:23.664Z,30.83
2023-02-05T19:43:52.672Z,39.90
2023-02-05T19:46:22.299Z,30.25
2023-02-05T19:48:50.331Z,55.08
2023-02-05T19:51:18.015Z,40.70
2023-02-05T19:53:46.898Z,41.83
2023-02-05T19:56:17.419Z,57.15
2023-02-05T19:58:46.978Z,39.05
2023-02-05T20:01:24.968Z,33.90
2023-02-05T20:04:00.108Z,38.53
2023-02-05T20:06:29.569Z,37.17
2023-02-05T20:08:57.275Z,43.33
2023-02-05T20:11:25.133Z,46.53
2023-02-05T20:13:54.259Z,43.03
2023-02-05T20:16:23.027Z,52.08
2023-02-05T20:18:55.977Z,48.00
2023-02-05T20:21:23.662Z,43.10
2023-02-05T20:23:55.108Z,40.75
2023-02-05T20:26:23.451Z,42.25
2023-02-05T20:29:11.521Z,31.23
2023-02-05T20:31:46.809Z,42.45
2023-02-05T20:34:19.136Z,40.55
2023-02-05T20:36:54.200Z,45.42
2023-02-05T20:39:22.847Z,45.17
2023-02-05T20:41:51.888Z,53.33
2023-02-05T20:44:20.606Z,40.30
2023-02-05T20:46:48.407Z,57.65
2023-02-05T20:49:16.376Z,49.63
2023-02-05T20:51:45.977Z,46.25
2023-02-05T20:54:14.145Z,50.50
2023-02-05T20:56:42.295Z,34.65
2023-02-05T20:59:10.286Z,52.85
2023-02-05T21:01:38.380Z,47.35
2023-02-05T21:04:06.985Z,45.33
2023-02-05T21:06:36.085Z,53.90
2023-02-05T21:09:04.016Z,51.65
2023-02-05T21:11:31.605Z,63.53
2023-02-05T21:13:59.457Z,49.42
2023-02-05T21:16:28.918Z,64.28
2023-02-05T21:18:56.794Z,62.67
2023-02-05T21:21:26.319Z,57.67
2023-02-05T21:23:58.468Z,53.50
2023-02-05T21:26:28.800Z,49.38
2023-02-05T21:28:57.351Z,39.10
2023-02-05T21:31:26.091Z,61.97
2023-02-05T21:33:53.984Z,66.20
2023-02-05T21:36:21.898Z,59.42
2023-02-05T21:38:49.474Z,56.58
2023-02-05T21:41:18.619Z,55.60
2023-02-05T21:43:51.844Z,57.67
2023-02-05T21:46:19.551Z,55.00
2023-02-05T21:48:51.082Z,47.83
2023-02-05T21:51:19.290Z,47.28
2023-02-05T21:53:46.978Z,50.80
2023-02-05T21:56:16.717Z,44.55
2023-02-05T21:58:45.175Z,62.20
2023-02-05T22:01:17.341Z,61.13
2023-02-05T22:03:49.016Z,52.80
2023-02-05T22:06:16.960Z,50.80
2023-02-05T22:08:48.354Z,43.70
2023-02-05T22:11:19.526Z,42.92
2023-02-05T22:13:48.249Z,55.80
2023-02-05T22:16:18.369Z,59.85
2023-02-05T22:18:47.353Z,55.42
2023-02-05T22:21:16.306Z,44.97
2023-02-05T22:23:45.699Z,52.88
2023-02-05T22:26:14.007Z,52.77
2023-02-05T22:28:41.822Z,48.05
2023-02-05T22:31:11.092Z,50.83
2023-02-05T22:33:42.508Z,48.47
2023-02-05T22:36:11.297Z,49.67
2023-02-05T22:38:39.570Z,53.00
2023-02-05T22:41:17.634Z,54.30
2023-02-05T22:43:46.869Z,51.22
2023-02-05T22:46:15.991Z,48.03
2023-02-05T22:48:45.211Z,46.13
2023-02-05T22:51:14.996Z,39.80
2023-02-05T22:53:43.045Z,55.58
2023-02-05T22:56:12.574Z,48.20
2023-02-05T22:58:41.549Z,49.38
2023-02-05T23:01:10.220Z,53.28
2023-02-05T23:03:38.700Z,58.50
2023-02-05T23:06:16.656Z,66.15
2023-02-05T23:08:45.658Z,47.08
2023-02-05T23:11:15.455Z,48.17
2023-02-05T23:13:43.351Z,63.97
2023-02-05T23:16:31.196Z,57.65
2023-02-05T23:19:03.582Z,59.90
2023-02-05T23:21:35.167Z,49.67
2023-02-05T23:24:02.897Z,63.65
2023-02-05T23:26:35.613Z,50.47
2023-02-05T23:29:03.156Z,62.90
2023-02-05T23:31:31.264Z,44.10
2023-02-05T23:33:59.229Z,59.35
2023-02-05T23:36:27.154Z,46.88
2023-02-05T23:38:54.841Z,56.85
2023-02-05T23:41:40.030Z,40.58
2023-02-05T23:44:16.098Z,47.92
2023-02-05T23:46:45.510Z,49.35
2023-02-05T23:49:16.248Z,54.42
2023-02-05T23:51:44.277Z,46.55
2023-02-05T23:54:12.377Z,56.08
2023-02-05T23:56:40.310Z,55.10
2023-02-05T23:59:14.010Z,55.03
